sensor_id;sensor_type;location;lat;lon;timestamp;P1;durP1;ratioP1;P2;durP2;ratioP2
16979;SDS011;42288;52.182;21.156;2022-09-27T00:01:06;30.97;;;19.97;;
16979;SDS011;42288;52.182;21.156;2022-09-27T00:03:33;25.77;;;17.87;;
16979;SDS011;42288;52.182;21.156;2022-09-27T00:06:02;27.63;;;18.73;;
16979;SDS011;42288;52.182;21.156;2022-09-27T00:08:39;25.60;;;17.43;;
16979;SDS011;42288;52.182;21.156;2022-09-27T00:11:05;25.47;;;19.07;;
16979;SDS011;42288;52.182;21.156;2022-09-27T00:13:34;25.73;;;17.93;;
16979;SDS011;42288;52.182;21.156;2022-09-27T00:16:01;26.77;;;17.27;;
16979;SDS011;42288;52.182;21.156;2022-09-27T00:18:31;23.83;;;16.27;;
16979;SDS011;42288;52.182;21.156;2022-09-27T00:21:04;24.17;;;16.87;;
16979;SDS011;42288;52.182;21.156;2022-09-27T00:23:31;25.20;;;16.00;;
16979;SDS011;42288;52.182;21.156;2022-09-27T00:25:57;23.93;;;17.17;;
16979;SDS011;42288;52.182;21.156;2022-09-27T00:28:24;27.10;;;18.03;;
16979;SDS011;42288;52.182;21.156;2022-09-27T00:30:50;28.23;;;17.97;;
16979;SDS011;42288;52.182;21.156;2022-09-27T00:33:16;27.07;;;18.37;;
16979;SDS011;42288;52.182;21.156;2022-09-27T00:35:42;25.83;;;17.97;;
16979;SDS011;42288;52.182;21.156;2022-09-27T00:38:08;26.43;;;17.47;;
16979;SDS011;42288;52.182;21.156;2022-09-27T00:40:33;25.33;;;17.87;;
16979;SDS011;42288;52.182;21.156;2022-09-27T00:42:59;24.27;;;16.27;;
16979;SDS011;42288;52.182;21.156;2022-09-27T00:45:24;25.53;;;16.07;;
16979;SDS011;42288;52.182;21.156;2022-09-27T00:47:54;24.23;;;15.27;;
16979;SDS011;42288;52.182;21.156;2022-09-27T00:50:25;23.93;;;16.43;;
16979;SDS011;42288;52.182;21.156;2022-09-27T00:55:44;23.13;;;15.83;;
16979;SDS011;42288;52.182;21.156;2022-09-27T00:58:16;29.07;;;16.87;;
16979;SDS011;42288;52.182;21.156;2022-09-27T01:00:46;24.23;;;16.90;;
16979;SDS011;42288;52.182;21.156;2022-09-27T01:03:18;27.03;;;18.17;;
16979;SDS011;42288;52.182;21.156;2022-09-27T01:05:50;26.03;;;17.40;;
16979;SDS011;42288;52.182;21.156;2022-09-27T01:08:17;26.63;;;17.53;;
16979;SDS011;42288;52.182;21.156;2022-09-27T01:10:46;25.93;;;18.77;;
16979;SDS011;42288;52.182;21.156;2022-09-27T01:13:29;24.50;;;17.80;;
16979;SDS011;42288;52.182;21.156;2022-09-27T01:16:26;28.00;;;19.23;;
16979;SDS011;42288;52.182;21.156;2022-09-27T01:24:18;34.00;;;21.30;;
16979;SDS011;42288;52.182;21.156;2022-09-27T01:27:29;31.47;;;20.90;;
16979;SDS011;42288;52.182;21.156;2022-09-27T01:36:13;36.47;;;23.50;;
16979;SDS011;42288;52.182;21.156;2022-09-27T01:44:36;41.83;;;25.83;;
16979;SDS011;42288;52.182;21.156;2022-09-27T01:47:20;46.13;;;25.13;;
16979;SDS011;42288;52.182;21.156;2022-09-27T01:52:30;44.17;;;26.73;;
16979;SDS011;42288;52.182;21.156;2022-09-27T01:55:05;48.70;;;28.00;;
16979;SDS011;42288;52.182;21.156;2022-09-27T01:57:36;46.97;;;26.93;;
16979;SDS011;42288;52.182;21.156;2022-09-27T02:00:08;42.20;;;24.70;;
16979;SDS011;42288;52.182;21.156;2022-09-27T02:02:39;49.50;;;27.03;;
16979;SDS011;42288;52.182;21.156;2022-09-27T02:05:10;56.67;;;28.90;;
16979;SDS011;42288;52.182;21.156;2022-09-27T02:07:49;54.67;;;30.80;;
16979;SDS011;42288;52.182;21.156;2022-09-27T02:10:21;64.17;;;29.30;;
16979;SDS011;42288;52.182;21.156;2022-09-27T02:15:55;63.00;;;31.87;;
16979;SDS011;42288;52.182;21.156;2022-09-27T02:18:35;58.60;;;30.00;;
16979;SDS011;42288;52.182;21.156;2022-09-27T02:21:15;59.73;;;30.20;;
16979;SDS011;42288;52.182;21.156;2022-09-27T02:23:44;51.83;;;27.17;;
16979;SDS011;42288;52.182;21.156;2022-09-27T02:26:19;52.87;;;26.77;;
16979;SDS011;42288;52.182;21.156;2022-09-27T02:29:04;61.23;;;29.90;;
16979;SDS011;42288;52.182;21.156;2022-09-27T02:31:35;62.30;;;31.40;;
16979;SDS011;42288;52.182;21.156;2022-09-27T02:34:06;66.90;;;30.83;;
16979;SDS011;42288;52.182;21.156;2022-09-27T02:36:42;88.00;;;32.00;;
16979;SDS011;42288;52.182;21.156;2022-09-27T02:39:07;88.17;;;32.83;;
16979;SDS011;42288;52.182;21.156;2022-09-27T02:41:33;67.07;;;30.93;;
16979;SDS011;42288;52.182;21.156;2022-09-27T02:43:59;88.33;;;33.03;;
16979;SDS011;42288;52.182;21.156;2022-09-27T02:46:32;66.73;;;31.50;;
16979;SDS011;42288;52.182;21.156;2022-09-27T02:49:28;64.60;;;29.97;;
16979;SDS011;42288;52.182;21.156;2022-09-27T02:57:44;65.10;;;33.07;;
16979;SDS011;42288;52.182;21.156;2022-09-27T03:00:14;75.93;;;33.63;;
16979;SDS011;42288;52.182;21.156;2022-09-27T03:02:56;70.57;;;34.27;;
16979;SDS011;42288;52.182;21.156;2022-09-27T03:05:31;63.10;;;31.90;;
16979;SDS011;42288;52.182;21.156;2022-09-27T03:08:10;62.03;;;32.57;;
16979;SDS011;42288;52.182;21.156;2022-09-27T03:10:36;69.00;;;34.40;;
16979;SDS011;42288;52.182;21.156;2022-09-27T03:13:02;58.43;;;33.67;;
16979;SDS011;42288;52.182;21.156;2022-09-27T03:15:28;59.43;;;32.13;;
16979;SDS011;42288;52.182;21.156;2022-09-27T03:17:54;61.50;;;31.53;;
16979;SDS011;42288;52.182;21.156;2022-09-27T03:20:20;71.87;;;32.87;;
16979;SDS011;42288;52.182;21.156;2022-09-27T03:22:45;52.57;;;29.27;;
16979;SDS011;42288;52.182;21.156;2022-09-27T03:25:11;51.73;;;30.10;;
16979;SDS011;42288;52.182;21.156;2022-09-27T03:27:36;53.10;;;28.67;;
16979;SDS011;42288;52.182;21.156;2022-09-27T03:30:02;59.50;;;31.50;;
16979;SDS011;42288;52.182;21.156;2022-09-27T03:32:28;49.83;;;28.47;;
16979;SDS011;42288;52.182;21.156;2022-09-27T03:34:55;60.43;;;33.90;;
16979;SDS011;42288;52.182;21.156;2022-09-27T03:37:21;59.57;;;33.10;;
16979;SDS011;42288;52.182;21.156;2022-09-27T03:39:47;52.77;;;30.17;;
16979;SDS011;42288;52.182;21.156;2022-09-27T03:42:12;58.10;;;32.33;;
16979;SDS011;42288;52.182;21.156;2022-09-27T03:44:38;54.13;;;31.17;;
16979;SDS011;42288;52.182;21.156;2022-09-27T03:47:04;53.67;;;30.10;;
16979;SDS011;42288;52.182;21.156;2022-09-27T03:49:30;54.07;;;30.87;;
16979;SDS011;42288;52.182;21.156;2022-09-27T03:51:56;55.63;;;31.03;;
16979;SDS011;42288;52.182;21.156;2022-09-27T03:54:22;49.80;;;28.93;;
16979;SDS011;42288;52.182;21.156;2022-09-27T03:56:48;48.87;;;29.30;;
16979;SDS011;42288;52.182;21.156;2022-09-27T03:59:14;50.40;;;27.67;;
16979;SDS011;42288;52.182;21.156;2022-09-27T04:01:39;53.40;;;30.20;;
16979;SDS011;42288;52.182;21.156;2022-09-27T04:04:06;55.30;;;31.87;;
16979;SDS011;42288;52.182;21.156;2022-09-27T04:06:31;54.13;;;31.00;;
16979;SDS011;42288;52.182;21.156;2022-09-27T04:08:58;51.23;;;30.57;;
16979;SDS011;42288;52.182;21.156;2022-09-27T04:11:24;56.17;;;31.10;;
16979;SDS011;42288;52.182;21.156;2022-09-27T04:13:49;53.97;;;30.63;;
16979;SDS011;42288;52.182;21.156;2022-09-27T04:16:15;59.83;;;33.20;;
16979;SDS011;42288;52.182;21.156;2022-09-27T04:18:41;54.20;;;29.67;;
16979;SDS011;42288;52.182;21.156;2022-09-27T04:21:07;49.97;;;28.50;;
16979;SDS011;42288;52.182;21.156;2022-09-27T04:23:33;61.30;;;32.83;;
16979;SDS011;42288;52.182;21.156;2022-09-27T04:25:59;51.67;;;29.53;;
16979;SDS011;42288;52.182;21.156;2022-09-27T04:28:24;65.23;;;33.80;;
16979;SDS011;42288;52.182;21.156;2022-09-27T04:30:51;61.17;;;30.60;;
16979;SDS011;42288;52.182;21.156;2022-09-27T04:33:17;58.77;;;31.00;;
16979;SDS011;42288;52.182;21.156;2022-09-27T04:35:43;59.97;;;31.23;;
16979;SDS011;42288;52.182;21.156;2022-09-27T04:38:27;68.27;;;34.37;;
16979;SDS011;42288;52.182;21.156;2022-09-27T04:40:53;56.73;;;32.67;;
16979;SDS011;42288;52.182;21.156;2022-09-27T04:43:18;56.40;;;30.13;;
16979;SDS011;42288;52.182;21.156;2022-09-27T04:45:44;56.40;;;29.53;;
16979;SDS011;42288;52.182;21.156;2022-09-27T04:48:09;53.57;;;28.77;;
16979;SDS011;42288;52.182;21.156;2022-09-27T04:50:35;53.47;;;27.97;;
16979;SDS011;42288;52.182;21.156;2022-09-27T04:53:00;59.03;;;27.73;;
16979;SDS011;42288;52.182;21.156;2022-09-27T04:55:26;50.07;;;26.17;;
16979;SDS011;42288;52.182;21.156;2022-09-27T04:57:52;44.27;;;24.53;;
16979;SDS011;42288;52.182;21.156;2022-09-27T05:00:18;61.10;;;29.43;;
16979;SDS011;42288;52.182;21.156;2022-09-27T05:02:44;47.43;;;24.63;;
16979;SDS011;42288;52.182;21.156;2022-09-27T05:05:12;50.57;;;26.40;;
16979;SDS011;42288;52.182;21.156;2022-09-27T05:07:37;53.50;;;24.97;;
16979;SDS011;42288;52.182;21.156;2022-09-27T05:10:04;51.30;;;24.17;;
16979;SDS011;42288;52.182;21.156;2022-09-27T05:12:30;43.83;;;22.80;;
16979;SDS011;42288;52.182;21.156;2022-09-27T05:14:56;56.20;;;24.80;;
16979;SDS011;42288;52.182;21.156;2022-09-27T05:17:21;52.97;;;24.90;;
16979;SDS011;42288;52.182;21.156;2022-09-27T05:19:47;46.63;;;21.30;;
16979;SDS011;42288;52.182;21.156;2022-09-27T05:22:13;42.23;;;20.27;;
16979;SDS011;42288;52.182;21.156;2022-09-27T05:24:39;41.73;;;19.00;;
16979;SDS011;42288;52.182;21.156;2022-09-27T05:27:06;45.03;;;19.23;;
16979;SDS011;42288;52.182;21.156;2022-09-27T05:29:34;48.37;;;20.50;;
16979;SDS011;42288;52.182;21.156;2022-09-27T05:32:00;45.10;;;19.37;;
16979;SDS011;42288;52.182;21.156;2022-09-27T05:34:26;36.50;;;19.13;;
16979;SDS011;42288;52.182;21.156;2022-09-27T05:36:51;45.93;;;21.57;;
16979;SDS011;42288;52.182;21.156;2022-09-27T05:39:17;47.90;;;20.47;;
16979;SDS011;42288;52.182;21.156;2022-09-27T05:41:43;45.63;;;19.63;;
16979;SDS011;42288;52.182;21.156;2022-09-27T05:44:09;50.33;;;22.87;;
16979;SDS011;42288;52.182;21.156;2022-09-27T05:46:37;48.87;;;21.57;;
16979;SDS011;42288;52.182;21.156;2022-09-27T05:49:03;50.27;;;22.17;;
16979;SDS011;42288;52.182;21.156;2022-09-27T05:51:29;47.33;;;19.73;;
16979;SDS011;42288;52.182;21.156;2022-09-27T05:53:54;41.27;;;19.53;;
16979;SDS011;42288;52.182;21.156;2022-09-27T05:56:20;42.63;;;19.53;;
16979;SDS011;42288;52.182;21.156;2022-09-27T05:58:45;51.80;;;21.93;;
16979;SDS011;42288;52.182;21.156;2022-09-27T06:01:11;46.77;;;21.73;;
16979;SDS011;42288;52.182;21.156;2022-09-27T06:03:37;45.10;;;21.17;;
16979;SDS011;42288;52.182;21.156;2022-09-27T06:06:04;51.37;;;24.43;;
16979;SDS011;42288;52.182;21.156;2022-09-27T06:08:33;56.60;;;25.53;;
16979;SDS011;42288;52.182;21.156;2022-09-27T06:11:01;57.70;;;24.47;;
16979;SDS011;42288;52.182;21.156;2022-09-27T06:13:28;48.40;;;22.63;;
16979;SDS011;42288;52.182;21.156;2022-09-27T06:15:54;56.20;;;26.73;;
16979;SDS011;42288;52.182;21.156;2022-09-27T06:18:19;54.27;;;24.77;;
16979;SDS011;42288;52.182;21.156;2022-09-27T06:20:45;56.77;;;25.37;;
16979;SDS011;42288;52.182;21.156;2022-09-27T06:23:17;56.63;;;26.03;;
16979;SDS011;42288;52.182;21.156;2022-09-27T06:25:46;51.33;;;25.93;;
16979;SDS011;42288;52.182;21.156;2022-09-27T06:28:12;45.70;;;22.53;;
16979;SDS011;42288;52.182;21.156;2022-09-27T06:30:42;43.43;;;21.27;;
16979;SDS011;42288;52.182;21.156;2022-09-27T06:33:13;50.37;;;22.63;;
16979;SDS011;42288;52.182;21.156;2022-09-27T06:35:41;51.27;;;24.60;;
16979;SDS011;42288;52.182;21.156;2022-09-27T06:38:07;39.97;;;21.50;;
16979;SDS011;42288;52.182;21.156;2022-09-27T06:40:35;44.73;;;21.93;;
16979;SDS011;42288;52.182;21.156;2022-09-27T06:43:02;51.53;;;24.10;;
16979;SDS011;42288;52.182;21.156;2022-09-27T06:45:28;52.87;;;26.17;;
16979;SDS011;42288;52.182;21.156;2022-09-27T06:47:55;45.80;;;23.07;;
16979;SDS011;42288;52.182;21.156;2022-09-27T06:50:21;53.10;;;25.77;;
16979;SDS011;42288;52.182;21.156;2022-09-27T06:52:47;51.93;;;26.20;;
16979;SDS011;42288;52.182;21.156;2022-09-27T06:55:13;41.03;;;21.10;;
16979;SDS011;42288;52.182;21.156;2022-09-27T06:57:39;48.10;;;23.90;;
16979;SDS011;42288;52.182;21.156;2022-09-27T07:00:23;43.40;;;21.67;;
16979;SDS011;42288;52.182;21.156;2022-09-27T07:02:50;43.67;;;20.77;;
16979;SDS011;42288;52.182;21.156;2022-09-27T07:05:25;40.10;;;21.00;;
16979;SDS011;42288;52.182;21.156;2022-09-27T07:07:53;50.77;;;25.07;;
16979;SDS011;42288;52.182;21.156;2022-09-27T07:10:21;41.53;;;20.23;;
16979;SDS011;42288;52.182;21.156;2022-09-27T07:12:48;40.83;;;20.70;;
16979;SDS011;42288;52.182;21.156;2022-09-27T07:15:13;49.10;;;22.77;;
16979;SDS011;42288;52.182;21.156;2022-09-27T07:17:39;41.20;;;20.33;;
16979;SDS011;42288;52.182;21.156;2022-09-27T07:20:05;46.87;;;21.60;;
16979;SDS011;42288;52.182;21.156;2022-09-27T07:22:31;46.27;;;19.37;;
16979;SDS011;42288;52.182;21.156;2022-09-27T07:24:56;44.13;;;22.37;;
16979;SDS011;42288;52.182;21.156;2022-09-27T07:27:22;41.50;;;20.50;;
16979;SDS011;42288;52.182;21.156;2022-09-27T07:29:49;50.43;;;20.80;;
16979;SDS011;42288;52.182;21.156;2022-09-27T07:32:14;36.47;;;17.30;;
16979;SDS011;42288;52.182;21.156;2022-09-27T07:34:40;37.80;;;17.07;;
16979;SDS011;42288;52.182;21.156;2022-09-27T07:37:06;47.17;;;20.37;;
16979;SDS011;42288;52.182;21.156;2022-09-27T07:39:31;36.00;;;17.37;;
16979;SDS011;42288;52.182;21.156;2022-09-27T07:41:57;40.93;;;19.07;;
16979;SDS011;42288;52.182;21.156;2022-09-27T07:44:22;38.40;;;19.37;;
16979;SDS011;42288;52.182;21.156;2022-09-27T07:46:48;37.77;;;18.40;;
16979;SDS011;42288;52.182;21.156;2022-09-27T07:49:13;39.23;;;19.20;;
16979;SDS011;42288;52.182;21.156;2022-09-27T07:51:39;37.07;;;17.43;;
16979;SDS011;42288;52.182;21.156;2022-09-27T07:54:04;36.90;;;17.63;;
16979;SDS011;42288;52.182;21.156;2022-09-27T07:56:30;40.30;;;20.77;;
16979;SDS011;42288;52.182;21.156;2022-09-27T07:58:56;34.53;;;18.40;;
16979;SDS011;42288;52.182;21.156;2022-09-27T08:01:22;36.57;;;18.23;;
16979;SDS011;42288;52.182;21.156;2022-09-27T08:03:47;28.30;;;15.83;;
16979;SDS011;42288;52.182;21.156;2022-09-27T08:06:13;28.60;;;17.00;;
16979;SDS011;42288;52.182;21.156;2022-09-27T08:08:38;38.27;;;20.10;;
16979;SDS011;42288;52.182;21.156;2022-09-27T08:11:12;33.17;;;18.07;;
16979;SDS011;42288;52.182;21.156;2022-09-27T08:13:40;32.47;;;19.43;;
16979;SDS011;42288;52.182;21.156;2022-09-27T08:16:06;31.93;;;19.50;;
16979;SDS011;42288;52.182;21.156;2022-09-27T08:18:31;31.73;;;17.73;;
16979;SDS011;42288;52.182;21.156;2022-09-27T08:20:57;35.33;;;18.90;;
16979;SDS011;42288;52.182;21.156;2022-09-27T08:23:23;33.10;;;19.40;;
16979;SDS011;42288;52.182;21.156;2022-09-27T08:25:52;33.90;;;19.20;;
16979;SDS011;42288;52.182;21.156;2022-09-27T08:28:18;34.50;;;18.57;;
16979;SDS011;42288;52.182;21.156;2022-09-27T08:30:46;30.50;;;18.10;;
16979;SDS011;42288;52.182;21.156;2022-09-27T08:33:12;29.47;;;18.53;;
16979;SDS011;42288;52.182;21.156;2022-09-27T08:35:38;32.37;;;18.80;;
16979;SDS011;42288;52.182;21.156;2022-09-27T08:38:03;31.20;;;17.77;;
16979;SDS011;42288;52.182;21.156;2022-09-27T08:43:11;29.23;;;17.93;;
16979;SDS011;42288;52.182;21.156;2022-09-27T08:45:53;30.20;;;17.97;;
16979;SDS011;42288;52.182;21.156;2022-09-27T08:48:27;28.50;;;18.00;;
16979;SDS011;42288;52.182;21.156;2022-09-27T08:50:54;26.77;;;17.13;;
16979;SDS011;42288;52.182;21.156;2022-09-27T08:55:53;29.23;;;16.00;;
16979;SDS011;42288;52.182;21.156;2022-09-27T08:58:31;25.60;;;16.97;;
16979;SDS011;42288;52.182;21.156;2022-09-27T09:01:03;21.97;;;14.50;;
16979;SDS011;42288;52.182;21.156;2022-09-27T09:03:32;22.73;;;14.70;;
16979;SDS011;42288;52.182;21.156;2022-09-27T09:23:22;28.80;;;15.93;;
16979;SDS011;42288;52.182;21.156;2022-09-27T09:26:44;22.23;;;14.30;;
16979;SDS011;42288;52.182;21.156;2022-09-27T09:34:12;20.10;;;13.27;;
16979;SDS011;42288;52.182;21.156;2022-09-27T09:36:52;18.67;;;13.47;;
16979;SDS011;42288;52.182;21.156;2022-09-27T09:42:04;18.17;;;11.97;;
16979;SDS011;42288;52.182;21.156;2022-09-27T09:44:40;17.73;;;12.70;;
16979;SDS011;42288;52.182;21.156;2022-09-27T09:47:45;17.50;;;12.80;;
16979;SDS011;42288;52.182;21.156;2022-09-27T09:50:23;17.27;;;12.97;;
16979;SDS011;42288;52.182;21.156;2022-09-27T09:52:54;17.27;;;12.23;;
16979;SDS011;42288;52.182;21.156;2022-09-27T09:55:36;13.87;;;9.87;;
16979;SDS011;42288;52.182;21.156;2022-09-27T10:00:41;14.07;;;10.83;;
16979;SDS011;42288;52.182;21.156;2022-09-27T10:03:07;16.47;;;10.93;;
16979;SDS011;42288;52.182;21.156;2022-09-27T10:05:33;13.87;;;10.60;;
16979;SDS011;42288;52.182;21.156;2022-09-27T10:08:03;14.80;;;10.47;;
16979;SDS011;42288;52.182;21.156;2022-09-27T10:10:31;15.93;;;11.40;;
16979;SDS011;42288;52.182;21.156;2022-09-27T10:12:58;15.77;;;10.50;;
16979;SDS011;42288;52.182;21.156;2022-09-27T10:15:27;15.27;;;10.90;;
16979;SDS011;42288;52.182;21.156;2022-09-27T10:17:58;15.17;;;10.90;;
16979;SDS011;42288;52.182;21.156;2022-09-27T10:20:42;15.27;;;11.67;;
16979;SDS011;42288;52.182;21.156;2022-09-27T10:23:18;21.23;;;13.60;;
16979;SDS011;42288;52.182;21.156;2022-09-27T10:28:32;19.20;;;12.73;;
16979;SDS011;42288;52.182;21.156;2022-09-27T10:31:02;16.20;;;12.00;;
16979;SDS011;42288;52.182;21.156;2022-09-27T10:33:30;17.13;;;13.53;;
16979;SDS011;42288;52.182;21.156;2022-09-27T10:35:57;22.93;;;13.80;;
16979;SDS011;42288;52.182;21.156;2022-09-27T10:38:25;21.13;;;15.10;;
16979;SDS011;42288;52.182;21.156;2022-09-27T10:40:56;19.80;;;14.20;;
16979;SDS011;42288;52.182;21.156;2022-09-27T10:43:39;17.87;;;14.27;;
16979;SDS011;42288;52.182;21.156;2022-09-27T10:48:37;16.77;;;12.53;;
16979;SDS011;42288;52.182;21.156;2022-09-27T10:51:06;17.67;;;13.70;;
16979;SDS011;42288;52.182;21.156;2022-09-27T10:53:50;18.87;;;12.53;;
16979;SDS011;42288;52.182;21.156;2022-09-27T10:56:32;15.97;;;12.13;;
16979;SDS011;42288;52.182;21.156;2022-09-27T10:58:59;17.17;;;11.77;;
16979;SDS011;42288;52.182;21.156;2022-09-27T11:01:26;16.00;;;12.00;;
16979;SDS011;42288;52.182;21.156;2022-09-27T11:04:15;15.00;;;10.90;;
16979;SDS011;42288;52.182;21.156;2022-09-27T11:06:44;14.13;;;10.93;;
16979;SDS011;42288;52.182;21.156;2022-09-27T11:09:15;14.20;;;11.10;;
16979;SDS011;42288;52.182;21.156;2022-09-27T11:11:44;14.83;;;11.63;;
16979;SDS011;42288;52.182;21.156;2022-09-27T11:14:17;14.50;;;11.17;;
16979;SDS011;42288;52.182;21.156;2022-09-27T11:16:59;15.97;;;12.33;;
16979;SDS011;42288;52.182;21.156;2022-09-27T11:28:16;20.97;;;13.10;;
16979;SDS011;42288;52.182;21.156;2022-09-27T11:31:14;18.83;;;13.60;;
16979;SDS011;42288;52.182;21.156;2022-09-27T11:45:09;16.70;;;12.23;;
16979;SDS011;42288;52.182;21.156;2022-09-27T11:47:52;14.93;;;11.63;;
16979;SDS011;42288;52.182;21.156;2022-09-27T11:51:06;17.10;;;12.37;;
16979;SDS011;42288;52.182;21.156;2022-09-27T12:10:11;17.23;;;13.03;;
16979;SDS011;42288;52.182;21.156;2022-09-27T12:12:40;14.20;;;10.60;;
16979;SDS011;42288;52.182;21.156;2022-09-27T12:15:13;15.90;;;11.67;;
16979;SDS011;42288;52.182;21.156;2022-09-27T12:17:43;17.90;;;12.87;;
16979;SDS011;42288;52.182;21.156;2022-09-27T12:20:24;14.20;;;10.70;;
16979;SDS011;42288;52.182;21.156;2022-09-27T12:23:14;14.73;;;11.37;;
16979;SDS011;42288;52.182;21.156;2022-09-27T12:25:48;15.33;;;12.03;;
16979;SDS011;42288;52.182;21.156;2022-09-27T12:31:02;14.97;;;11.47;;
16979;SDS011;42288;52.182;21.156;2022-09-27T12:33:45;14.70;;;11.40;;
16979;SDS011;42288;52.182;21.156;2022-09-27T12:36:34;13.57;;;9.90;;
16979;SDS011;42288;52.182;21.156;2022-09-27T12:39:09;13.50;;;9.53;;
16979;SDS011;42288;52.182;21.156;2022-09-27T12:41:39;13.43;;;10.67;;
16979;SDS011;42288;52.182;21.156;2022-09-27T12:44:09;13.57;;;10.93;;
16979;SDS011;42288;52.182;21.156;2022-09-27T12:46:43;13.33;;;9.87;;
16979;SDS011;42288;52.182;21.156;2022-09-27T12:49:21;12.20;;;9.73;;
16979;SDS011;42288;52.182;21.156;2022-09-27T12:52:05;11.23;;;9.53;;
16979;SDS011;42288;52.182;21.156;2022-09-27T13:02:56;11.80;;;8.93;;
16979;SDS011;42288;52.182;21.156;2022-09-27T13:05:49;13.00;;;9.00;;
16979;SDS011;42288;52.182;21.156;2022-09-27T13:08:45;10.53;;;8.30;;
16979;SDS011;42288;52.182;21.156;2022-09-27T13:14:20;10.67;;;8.20;;
16979;SDS011;42288;52.182;21.156;2022-09-27T13:16:49;10.77;;;8.43;;
16979;SDS011;42288;52.182;21.156;2022-09-27T13:19:35;9.07;;;8.07;;
16979;SDS011;42288;52.182;21.156;2022-09-27T13:22:04;9.77;;;7.70;;
16979;SDS011;42288;52.182;21.156;2022-09-27T13:30:41;11.67;;;8.10;;
16979;SDS011;42288;52.182;21.156;2022-09-27T13:33:19;9.17;;;7.70;;
16979;SDS011;42288;52.182;21.156;2022-09-27T13:35:38;8.97;;;6.97;;
16979;SDS011;42288;52.182;21.156;2022-09-27T13:38:04;9.17;;;7.50;;
16979;SDS011;42288;52.182;21.156;2022-09-27T13:40:47;10.23;;;7.67;;
16979;SDS011;42288;52.182;21.156;2022-09-27T13:43:20;11.03;;;7.10;;
16979;SDS011;42288;52.182;21.156;2022-09-27T13:46:23;9.27;;;7.40;;
16979;SDS011;42288;52.182;21.156;2022-09-27T13:48:52;9.27;;;7.80;;
16979;SDS011;42288;52.182;21.156;2022-09-27T13:54:35;9.07;;;7.53;;
16979;SDS011;42288;52.182;21.156;2022-09-27T13:56:59;10.80;;;8.60;;
16979;SDS011;42288;52.182;21.156;2022-09-27T13:59:38;9.63;;;7.90;;
16979;SDS011;42288;52.182;21.156;2022-09-27T14:04:42;10.60;;;7.63;;
16979;SDS011;42288;52.182;21.156;2022-09-27T14:07:13;10.00;;;7.70;;
16979;SDS011;42288;52.182;21.156;2022-09-27T14:09:57;7.90;;;6.90;;
16979;SDS011;42288;52.182;21.156;2022-09-27T14:12:27;8.20;;;7.10;;
16979;SDS011;42288;52.182;21.156;2022-09-27T14:14:57;9.60;;;7.30;;
16979;SDS011;42288;52.182;21.156;2022-09-27T14:17:24;11.23;;;7.80;;
16979;SDS011;42288;52.182;21.156;2022-09-27T14:19:50;8.37;;;7.43;;
16979;SDS011;42288;52.182;21.156;2022-09-27T14:22:18;8.77;;;7.23;;
16979;SDS011;42288;52.182;21.156;2022-09-27T14:24:47;8.97;;;7.93;;
16979;SDS011;42288;52.182;21.156;2022-09-27T14:27:18;10.07;;;7.80;;
16979;SDS011;42288;52.182;21.156;2022-09-27T14:29:52;9.73;;;7.70;;
16979;SDS011;42288;52.182;21.156;2022-09-27T14:32:28;11.13;;;8.30;;
16979;SDS011;42288;52.182;21.156;2022-09-27T14:35:06;11.83;;;7.57;;
16979;SDS011;42288;52.182;21.156;2022-09-27T14:37:59;12.93;;;8.40;;
16979;SDS011;42288;52.182;21.156;2022-09-27T14:40:26;11.17;;;8.20;;
16979;SDS011;42288;52.182;21.156;2022-09-27T14:42:59;14.73;;;9.20;;
16979;SDS011;42288;52.182;21.156;2022-09-27T14:45:34;13.53;;;8.87;;
16979;SDS011;42288;52.182;21.156;2022-09-27T14:48:16;13.67;;;9.10;;
16979;SDS011;42288;52.182;21.156;2022-09-27T14:53:24;12.17;;;8.23;;
16979;SDS011;42288;52.182;21.156;2022-09-27T14:55:51;13.93;;;8.57;;
16979;SDS011;42288;52.182;21.156;2022-09-27T14:58:18;10.23;;;6.97;;
16979;SDS011;42288;52.182;21.156;2022-09-27T15:00:46;9.33;;;7.67;;
16979;SDS011;42288;52.182;21.156;2022-09-27T15:03:16;10.63;;;7.60;;
16979;SDS011;42288;52.182;21.156;2022-09-27T15:05:55;11.40;;;8.50;;
16979;SDS011;42288;52.182;21.156;2022-09-27T15:08:23;10.80;;;8.40;;
16979;SDS011;42288;52.182;21.156;2022-09-27T15:10:51;10.13;;;8.07;;
16979;SDS011;42288;52.182;21.156;2022-09-27T15:13:18;9.00;;;7.70;;
16979;SDS011;42288;52.182;21.156;2022-09-27T15:15:45;10.60;;;8.10;;
16979;SDS011;42288;52.182;21.156;2022-09-27T15:21:04;10.13;;;8.70;;
16979;SDS011;42288;52.182;21.156;2022-09-27T15:23:35;12.33;;;8.53;;
16979;SDS011;42288;52.182;21.156;2022-09-27T15:26:21;10.20;;;7.87;;
16979;SDS011;42288;52.182;21.156;2022-09-27T15:28:50;10.60;;;7.70;;
16979;SDS011;42288;52.182;21.156;2022-09-27T15:31:17;11.10;;;8.33;;
16979;SDS011;42288;52.182;21.156;2022-09-27T15:33:52;12.40;;;8.77;;
16979;SDS011;42288;52.182;21.156;2022-09-27T15:36:47;12.60;;;9.60;;
16979;SDS011;42288;52.182;21.156;2022-09-27T15:39:17;15.47;;;11.40;;
16979;SDS011;42288;52.182;21.156;2022-09-27T15:55:18;9.97;;;7.33;;
16979;SDS011;42288;52.182;21.156;2022-09-27T15:57:50;10.43;;;8.67;;
16979;SDS011;42288;52.182;21.156;2022-09-27T16:00:19;13.77;;;7.83;;
16979;SDS011;42288;52.182;21.156;2022-09-27T16:02:44;8.47;;;7.53;;
16979;SDS011;42288;52.182;21.156;2022-09-27T16:05:11;10.17;;;7.80;;
16979;SDS011;42288;52.182;21.156;2022-09-27T16:07:37;11.03;;;7.40;;
16979;SDS011;42288;52.182;21.156;2022-09-27T16:10:12;9.90;;;7.80;;
16979;SDS011;42288;52.182;21.156;2022-09-27T16:12:38;13.57;;;8.67;;
16979;SDS011;42288;52.182;21.156;2022-09-27T16:15:04;10.73;;;8.27;;
16979;SDS011;42288;52.182;21.156;2022-09-27T16:17:30;10.93;;;8.67;;
16979;SDS011;42288;52.182;21.156;2022-09-27T16:19:56;11.23;;;7.90;;
16979;SDS011;42288;52.182;21.156;2022-09-27T16:22:22;12.13;;;10.10;;
16979;SDS011;42288;52.182;21.156;2022-09-27T16:24:47;11.83;;;9.33;;
16979;SDS011;42288;52.182;21.156;2022-09-27T16:27:24;13.83;;;10.90;;
16979;SDS011;42288;52.182;21.156;2022-09-27T16:29:51;12.60;;;9.87;;
16979;SDS011;42288;52.182;21.156;2022-09-27T16:32:21;11.83;;;9.27;;
16979;SDS011;42288;52.182;21.156;2022-09-27T16:34:47;14.37;;;11.17;;
16979;SDS011;42288;52.182;21.156;2022-09-27T16:37:12;16.43;;;10.90;;
16979;SDS011;42288;52.182;21.156;2022-09-27T16:39:39;14.53;;;10.53;;
16979;SDS011;42288;52.182;21.156;2022-09-27T16:42:04;11.37;;;9.33;;
16979;SDS011;42288;52.182;21.156;2022-09-27T16:44:31;15.27;;;10.90;;
16979;SDS011;42288;52.182;21.156;2022-09-27T16:47:00;14.70;;;10.57;;
16979;SDS011;42288;52.182;21.156;2022-09-27T16:49:26;11.57;;;9.10;;
16979;SDS011;42288;52.182;21.156;2022-09-27T16:52:10;16.37;;;11.70;;
16979;SDS011;42288;52.182;21.156;2022-09-27T16:54:36;14.33;;;10.93;;
16979;SDS011;42288;52.182;21.156;2022-09-27T16:57:01;14.60;;;10.37;;
16979;SDS011;42288;52.182;21.156;2022-09-27T16:59:27;14.13;;;9.80;;
16979;SDS011;42288;52.182;21.156;2022-09-27T17:01:52;16.63;;;10.93;;
16979;SDS011;42288;52.182;21.156;2022-09-27T17:04:21;15.00;;;10.83;;